Terminal Aerodrome Forecast
Issued by NWS

Home | Current Version | Previous Version | Text Only | Print | Product List | Glossary On
Versions: 1 2 3 4 5 6 7 8 9 10 11 12 13 14 15 16 17 18 19 20 21 22 23 24 25 26 27 28 29 30 31 32
000
FTAK31 PAFA 130538
TAFAQT
TAF
PAQT 130538Z 1306/1406 06018KT 2SM -SN BLSN BKN009 OVC015
     FM131800 06025KT 1 1/2SM -SN BLSN BKN007 OVC015
     FM132100 06025G35KT 1/2SM SN BLSN OVC003=

USA.gov is the U.S. government's official web portal to all federal, state and local government web resources and services.